Time;durP1;ratioP1;P1;durP2;ratioP2;P2;SDS_P1;SDS_P2;PMS_P1;PMS_P2;Temp;Humidity;BMP_temperature;BMP_pressure;BME280_temperature;BME280_humidity;BME280_pressure;Samples;Min_cycle;Max_cycle;Signal;HPM_P1;HPM_P2
2021/03/08 00:00:15;;;;;;;6.77;4.10;;;0.80;90.90;;;;;;5009655;28;20771;-81
2021/03/08 00:03:04;;;;;;;4.77;3.30;;;0.50;90.70;;;;;;5009920;28;20206;-82
2021/03/08 00:05:33;;;;;;;7.37;4.00;;;0.40;91.20;;;;;;5010040;28;20232;-80
2021/03/08 00:08:00;;;;;;;3.60;2.73;;;0.40;91.60;;;;;;5011520;28;20209;-81
2021/03/08 00:10:28;;;;;;;6.73;4.43;;;0.40;91.80;;;;;;5018407;28;20687;-80
2021/03/08 00:12:56;;;;;;;6.60;4.53;;;0.30;91.30;;;;;;5020986;28;20196;-81
2021/03/08 00:15:24;;;;;;;5.33;4.40;;;0.30;92.30;;;;;;5012046;28;20697;-81
2021/03/08 00:17:52;;;;;;;6.63;4.70;;;0.30;92.40;;;;;;5009463;28;20754;-81
2021/03/08 00:20:23;;;;;;;6.90;4.80;;;0.20;92.60;;;;;;5005109;28;20226;-81
2021/03/08 00:22:53;;;;;;;7.57;4.50;;;0.20;92.50;;;;;;5009972;28;20274;-82
2021/03/08 00:25:22;;;;;;;6.07;4.43;;;0.10;93.00;;;;;;5006510;28;20609;-79
2021/03/08 00:27:50;;;;;;;6.73;4.73;;;0.10;93.20;;;;;;5006988;28;20263;-82
2021/03/08 00:30:19;;;;;;;5.30;3.57;;;0.10;93.20;;;;;;5023682;28;20270;-82
2021/03/08 00:32:47;;;;;;;7.60;5.00;;;0.10;93.00;;;;;;5023971;28;20194;-80
2021/03/08 00:35:17;;;;;;;8.77;4.83;;;0.20;92.50;;;;;;5016161;28;20205;-81
2021/03/08 00:37:48;;;;;;;6.13;4.33;;;0.20;92.30;;;;;;5020395;28;20207;-82
2021/03/08 00:40:18;;;;;;;6.57;4.47;;;0.10;92.40;;;;;;5028057;28;20227;-81
2021/03/08 00:42:46;;;;;;;6.30;4.80;;;0.10;92.60;;;;;;5007305;28;20195;-81
2021/03/08 00:45:16;;;;;;;7.70;5.57;;;0.10;92.60;;;;;;5007790;28;20203;-80
2021/03/08 00:47:44;;;;;;;8.70;5.57;;;0.00;92.50;;;;;;5020391;28;20277;-81
2021/03/08 00:50:16;;;;;;;7.90;5.20;;;-0.10;92.50;;;;;;5014204;28;20661;-81
2021/03/08 00:52:44;;;;;;;6.93;4.97;;;-0.20;92.90;;;;;;5014468;28;20726;-81
2021/03/08 00:55:12;;;;;;;8.43;5.60;;;-0.20;93.40;;;;;;5009759;28;20203;-81
2021/03/08 00:57:41;;;;;;;9.63;5.37;;;-0.30;93.20;;;;;;5038121;28;20252;-81
2021/03/08 01:00:11;;;;;;;11.27;6.10;;;-0.40;93.30;;;;;;5022627;28;20414;-80
2021/03/08 01:02:39;;;;;;;9.13;5.90;;;-0.40;94.40;;;;;;5014221;28;20283;-80
2021/03/08 01:05:08;;;;;;;7.33;5.80;;;-0.50;94.80;;;;;;5011050;28;20385;-82
2021/03/08 01:07:36;;;;;;;8.20;6.27;;;-0.50;95.00;;;;;;5011629;28;20204;-80
2021/03/08 01:10:08;;;;;;;8.97;5.80;;;-0.50;95.10;;;;;;5012569;28;20208;-81
2021/03/08 01:12:35;;;;;;;9.97;6.27;;;-0.50;95.10;;;;;;5010928;28;20203;-81
2021/03/08 01:15:06;;;;;;;10.07;5.87;;;-0.40;95.10;;;;;;5006397;28;20191;-80
2021/03/08 01:17:33;;;;;;;8.47;6.43;;;-0.50;95.00;;;;;;5011119;28;20196;-81
2021/03/08 01:20:01;;;;;;;7.73;6.00;;;-0.60;95.20;;;;;;5006251;28;20966;-82
2021/03/08 01:22:28;;;;;;;10.47;6.03;;;-0.70;95.40;;;;;;5011560;28;20486;-81
2021/03/08 01:24:56;;;;;;;9.43;6.87;;;-0.70;95.80;;;;;;5006695;28;20203;-81
2021/03/08 01:27:24;;;;;;;9.63;6.73;;;-0.60;96.10;;;;;;5007807;28;20203;-80
2021/03/08 01:29:59;;;;;;;9.60;5.97;;;-0.80;95.90;;;;;;5017316;28;20207;-81
2021/03/08 01:32:28;;;;;;;7.40;6.07;;;-0.70;96.10;;;;;;5017213;28;20234;-81
2021/03/08 01:34:55;;;;;;;9.67;6.43;;;-0.80;96.10;;;;;;5030315;28;20228;-82
2021/03/08 01:37:24;;;;;;;8.33;6.30;;;-0.80;96.20;;;;;;5011735;28;20221;-82
2021/03/08 01:39:52;;;;;;;11.07;6.17;;;-0.80;96.30;;;;;;5015627;28;20211;-81
2021/03/08 01:42:19;;;;;;;11.10;5.83;;;-0.90;96.30;;;;;;5009989;28;20204;-81
2021/03/08 01:44:48;;;;;;;10.67;6.40;;;-0.80;96.80;;;;;;5003086;28;20218;-82
2021/03/08 01:47:16;;;;;;;9.80;6.20;;;-0.80;96.90;;;;;;5022173;28;20645;-82
2021/03/08 01:49:44;;;;;;;8.23;6.53;;;-0.80;96.70;;;;;;5005897;28;20200;-82
2021/03/08 01:52:12;;;;;;;8.80;6.47;;;-0.80;96.40;;;;;;5007183;28;20517;-79
2021/03/08 01:54:41;;;;;;;9.30;6.17;;;-0.90;96.10;;;;;;5006443;28;20566;-81
2021/03/08 01:57:09;;;;;;;10.10;6.20;;;-0.90;96.30;;;;;;5003842;28;20214;-80
2021/03/08 01:59:37;;;;;;;10.63;6.03;;;-1.00;96.40;;;;;;5010403;28;20254;-80
2021/03/08 02:02:06;;;;;;;10.87;7.30;;;-1.10;96.40;;;;;;5013826;28;20293;-81
2021/03/08 02:04:34;;;;;;;10.07;6.33;;;-1.20;96.60;;;;;;5019943;28;20196;-81
2021/03/08 02:07:03;;;;;;;9.53;6.47;;;-1.30;96.20;;;;;;5023782;28;20208;-79
2021/03/08 02:09:31;;;;;;;9.57;5.80;;;-1.40;97.20;;;;;;5019663;28;20214;-80
2021/03/08 02:12:06;;;;;;;12.80;6.73;;;-1.40;97.60;;;;;;5019820;28;20218;-80
2021/03/08 02:14:52;;;;;;;9.57;6.67;;;-1.30;98.50;;;;;;5019301;28;20198;-80
2021/03/08 02:17:26;;;;;;;12.07;7.00;;;-1.30;98.60;;;;;;5027498;28;20287;-81
2021/03/08 02:20:20;;;;;;;12.40;7.23;;;-1.30;98.60;;;;;;5011852;28;20939;-81
2021/03/08 02:23:10;;;;;;;9.17;6.27;;;-1.30;98.30;;;;;;4995596;28;21068;-81
2021/03/08 02:26:04;;;;;;;11.70;6.90;;;-1.30;98.80;;;;;;5012161;28;20199;-80
2021/03/08 02:29:04;;;;;;;12.13;7.50;;;-1.30;99.00;;;;;;5006940;28;20568;-81
2021/03/08 02:31:33;;;;;;;8.27;4.93;;;-1.20;98.80;;;;;;5010565;28;20258;-80
2021/03/08 02:34:06;;;;;;;9.10;5.57;;;-1.10;99.10;;;;;;5019236;28;20230;-80
2021/03/08 02:36:36;;;;;;;9.90;6.57;;;-1.20;98.70;;;;;;5016194;28;20197;-83
2021/03/08 02:39:10;;;;;;;10.10;6.80;;;-1.10;99.00;;;;;;5012107;28;20224;-81
2021/03/08 02:41:40;;;;;;;12.17;6.47;;;-1.00;98.90;;;;;;5009436;28;20398;-80
2021/03/08 02:44:13;;;;;;;11.20;6.77;;;-1.00;98.50;;;;;;4993728;28;20207;-82
2021/03/08 02:46:46;;;;;;;10.33;6.57;;;-1.00;98.20;;;;;;5007641;28;20544;-80
2021/03/08 02:49:16;;;;;;;9.13;6.13;;;-1.00;98.20;;;;;;5009828;28;20254;-82
2021/03/08 02:51:47;;;;;;;10.63;6.13;;;-1.00;98.00;;;;;;5003292;28;20211;-81
2021/03/08 02:54:18;;;;;;;9.87;5.90;;;-1.00;97.90;;;;;;5008160;28;20678;-81
2021/03/08 02:56:51;;;;;;;9.80;5.93;;;-1.10;97.60;;;;;;5007525;28;20536;-83
2021/03/08 02:59:20;;;;;;;8.93;6.10;;;-1.10;97.40;;;;;;4987169;28;20243;-81
2021/03/08 03:01:51;;;;;;;10.10;5.70;;;-1.00;97.80;;;;;;5002818;28;20211;-82
2021/03/08 03:04:22;;;;;;;10.07;6.97;;;-0.90;96.90;;;;;;5014879;28;20800;-81
2021/03/08 03:06:51;;;;;;;8.93;6.23;;;-0.90;96.50;;;;;;5018984;28;20203;-82
2021/03/08 03:09:21;;;;;;;8.37;6.17;;;-0.80;96.00;;;;;;5027657;28;20189;-80
2021/03/08 03:11:52;;;;;;;11.83;6.73;;;-1.10;96.00;;;;;;5032258;28;20223;-81
2021/03/08 03:14:21;;;;;;;10.53;7.07;;;-1.10;96.70;;;;;;5021048;28;20226;-81
2021/03/08 03:16:55;;;;;;;11.77;7.07;;;-1.10;96.90;;;;;;5030512;28;20206;-81
2021/03/08 03:19:24;;;;;;;12.87;6.80;;;-1.10;97.00;;;;;;5036114;28;20229;-81
2021/03/08 03:21:54;;;;;;;11.00;6.60;;;-1.10;97.10;;;;;;5002323;28;20280;-80
2021/03/08 03:24:24;;;;;;;9.60;6.73;;;-1.10;97.20;;;;;;5014319;28;20195;-81
2021/03/08 03:26:53;;;;;;;11.30;7.23;;;-1.00;96.80;;;;;;5016060;28;20223;-82
2021/03/08 03:29:21;;;;;;;10.93;6.40;;;-1.00;96.70;;;;;;5011666;28;20212;-81
2021/03/08 03:31:50;;;;;;;10.80;5.77;;;-1.00;96.60;;;;;;5013613;28;20315;-81
2021/03/08 03:34:19;;;;;;;11.53;6.80;;;-1.00;96.50;;;;;;5010036;28;20198;-80
2021/03/08 03:36:50;;;;;;;11.07;7.20;;;-0.90;95.80;;;;;;5012293;28;20203;-82
2021/03/08 03:39:18;;;;;;;9.53;6.33;;;-0.80;95.10;;;;;;5009309;28;20259;-81
2021/03/08 03:41:46;;;;;;;6.93;4.80;;;-0.90;94.70;;;;;;5025584;28;20199;-82
2021/03/08 03:44:14;;;;;;;6.13;4.90;;;-0.80;94.40;;;;;;5027430;28;20206;-79
2021/03/08 03:46:43;;;;;;;10.10;6.90;;;-0.80;94.10;;;;;;5031132;28;20207;-82
2021/03/08 03:49:13;;;;;;;6.23;4.63;;;-0.80;93.60;;;;;;5025246;28;20203;-81
2021/03/08 03:51:41;;;;;;;10.97;7.10;;;-0.80;93.60;;;;;;5025497;28;20238;-82
2021/03/08 03:54:11;;;;;;;8.97;5.90;;;-0.80;93.50;;;;;;5030779;28;20191;-81
2021/03/08 03:56:46;;;;;;;8.27;5.37;;;-0.90;93.40;;;;;;5034063;28;20199;-81
2021/03/08 03:59:21;;;;;;;8.40;5.40;;;-0.70;92.80;;;;;;5023889;28;20225;-81
2021/03/08 04:01:57;;;;;;;9.30;6.33;;;-0.70;92.70;;;;;;5025948;28;20544;-79
2021/03/08 04:04:34;;;;;;;11.03;6.40;;;-0.70;92.70;;;;;;5025460;28;20195;-81
2021/03/08 04:07:05;;;;;;;8.80;5.30;;;-0.80;92.30;;;;;;5022040;28;20192;-83
2021/03/08 04:09:35;;;;;;;11.20;6.40;;;-0.80;92.40;;;;;;5011273;28;20269;-81
2021/03/08 04:12:06;;;;;;;11.73;6.37;;;-0.80;92.00;;;;;;5008160;28;20664;-80
2021/03/08 04:14:34;;;;;;;11.97;6.67;;;-0.90;92.10;;;;;;5009937;28;20626;-81
2021/03/08 04:17:03;;;;;;;13.47;7.40;;;-0.90;92.40;;;;;;5008904;28;20219;-81
2021/03/08 04:19:34;;;;;;;9.77;5.90;;;-0.90;92.50;;;;;;5008635;28;20223;-81
2021/03/08 04:22:03;;;;;;;8.10;5.50;;;-1.00;92.60;;;;;;4992336;28;20207;-82
2021/03/08 04:24:32;;;;;;;8.37;5.03;;;-1.00;92.80;;;;;;5014629;28;20235;-79
2021/03/08 04:27:05;;;;;;;8.87;5.30;;;-1.10;92.70;;;;;;5011487;28;20203;-80
2021/03/08 04:29:34;;;;;;;10.77;6.47;;;-1.10;93.10;;;;;;5029896;28;20209;-81
2021/03/08 04:32:18;;;;;;;10.90;6.80;;;-1.00;93.00;;;;;;5028278;28;20194;-80
2021/03/08 04:34:47;;;;;;;12.33;6.83;;;-1.00;92.80;;;;;;5023067;28;20232;-80
2021/03/08 04:37:16;;;;;;;10.13;6.70;;;-1.10;92.60;;;;;;5011612;28;20207;-79
2021/03/08 04:39:46;;;;;;;8.03;6.00;;;-1.20;92.80;;;;;;5015552;28;20258;-81
2021/03/08 04:42:15;;;;;;;10.57;6.60;;;-1.10;92.90;;;;;;5006190;28;20281;-82
2021/03/08 04:44:45;;;;;;;9.47;6.20;;;-1.20;93.00;;;;;;5017144;28;20215;-81
2021/03/08 04:47:16;;;;;;;9.70;5.93;;;-1.20;93.50;;;;;;5010135;28;20203;-79
2021/03/08 04:49:46;;;;;;;9.80;6.10;;;-1.20;93.80;;;;;;5020656;28;20196;-81
2021/03/08 04:52:18;;;;;;;11.50;6.67;;;-1.20;93.80;;;;;;5011657;28;20194;-81
2021/03/08 04:54:47;;;;;;;11.60;7.10;;;-1.20;93.80;;;;;;5032725;28;20203;-82
2021/03/08 04:57:17;;;;;;;11.80;7.00;;;-1.30;93.70;;;;;;5014742;28;20310;-80
2021/03/08 04:59:48;;;;;;;8.80;5.93;;;-1.40;94.00;;;;;;5027544;28;20782;-82
2021/03/08 05:02:25;;;;;;;10.93;5.90;;;-1.20;94.20;;;;;;5015111;28;20520;-81
2021/03/08 05:04:53;;;;;;;9.83;6.23;;;-1.20;94.10;;;;;;5024404;28;20198;-84
2021/03/08 05:07:23;;;;;;;10.47;6.33;;;-1.30;93.60;;;;;;5027664;28;20635;-81
2021/03/08 05:09:54;;;;;;;7.07;4.60;;;-1.20;93.20;;;;;;5017256;28;20207;-81
2021/03/08 05:12:24;;;;;;;10.03;6.73;;;-1.30;93.20;;;;;;5016062;28;20334;-81
2021/03/08 05:14:55;;;;;;;10.63;6.57;;;-1.30;93.20;;;;;;5015752;28;20211;-80
2021/03/08 05:17:24;;;;;;;11.50;6.47;;;-1.40;93.40;;;;;;5011053;28;20311;-81
2021/03/08 05:19:52;;;;;;;11.30;6.47;;;-1.40;93.60;;;;;;5015138;28;20223;-81
2021/03/08 05:22:22;;;;;;;9.63;6.83;;;-1.40;93.70;;;;;;5018004;28;20199;-82
2021/03/08 05:24:51;;;;;;;6.93;5.70;;;-1.40;93.50;;;;;;5011123;28;20200;-81
2021/03/08 05:27:19;;;;;;;11.73;6.17;;;-1.40;93.40;;;;;;5016339;28;20227;-81
2021/03/08 05:29:49;;;;;;;11.47;6.50;;;-1.30;93.50;;;;;;5035976;28;20226;-81
2021/03/08 05:32:22;;;;;;;11.00;6.20;;;-1.30;93.00;;;;;;5034826;28;20182;-83
2021/03/08 05:34:51;;;;;;;9.00;6.10;;;-1.40;92.90;;;;;;5039054;28;20191;-82
2021/03/08 05:37:21;;;;;;;10.27;6.80;;;-1.30;93.10;;;;;;5033915;28;20260;-81
2021/03/08 05:39:51;;;;;;;8.57;6.23;;;-1.30;93.00;;;;;;5017848;28;20296;-81
2021/03/08 05:42:19;;;;;;;8.90;6.27;;;-1.30;93.00;;;;;;5034424;28;20183;-80
2021/03/08 05:44:54;;;;;;;9.10;5.90;;;-1.20;92.90;;;;;;5036313;28;20183;-81
2021/03/08 05:48:10;;;;;;;10.97;6.40;;;-1.10;92.60;;;;;;5027731;28;20500;-79
2021/03/08 05:51:07;;;;;;;8.23;5.17;;;-1.20;92.40;;;;;;5034679;28;20561;-81
2021/03/08 05:54:11;;;;;;;10.97;5.83;;;-1.20;92.30;;;;;;5026454;28;20203;-81
2021/03/08 05:57:04;;;;;;;8.30;5.20;;;-1.20;92.40;;;;;;5035129;28;20183;-80
2021/03/08 05:59:43;;;;;;;10.47;5.63;;;-1.20;92.40;;;;;;5016734;28;20528;-81
2021/03/08 06:02:35;;;;;;;9.40;5.90;;;-1.10;92.40;;;;;;5026967;28;20215;-82
2021/03/08 06:05:37;;;;;;;7.73;5.50;;;-1.10;92.10;;;;;;5028621;28;20191;-83
2021/03/08 06:08:46;;;;;;;7.93;5.83;;;-1.00;92.10;;;;;;5021758;28;20200;-80
2021/03/08 06:11:16;;;;;;;10.60;6.33;;;-1.00;91.90;;;;;;4991581;28;20591;-83
2021/03/08 06:13:52;;;;;;;9.57;6.03;;;-0.90;91.80;;;;;;5018002;28;20207;-81
2021/03/08 06:16:25;;;;;;;9.10;5.77;;;-0.90;91.70;;;;;;5021748;28;20601;-81
2021/03/08 06:18:54;;;;;;;7.87;4.80;;;-0.80;91.50;;;;;;5010588;28;20204;-81
2021/03/08 06:21:24;;;;;;;8.83;5.13;;;-0.70;91.20;;;;;;5018988;28;20228;-82
2021/03/08 06:23:53;;;;;;;7.30;5.63;;;-0.70;90.60;;;;;;5012176;28;20609;-83
2021/03/08 06:26:21;;;;;;;8.60;5.20;;;-0.60;90.30;;;;;;5015024;28;20209;-83
2021/03/08 06:28:50;;;;;;;7.90;5.20;;;-0.50;89.70;;;;;;5028174;28;20203;-81
2021/03/08 06:31:19;;;;;;;7.60;4.70;;;-0.40;89.50;;;;;;5033274;28;20218;-83
2021/03/08 06:33:52;;;;;;;12.03;4.87;;;-0.30;89.00;;;;;;5030471;28;20378;-84
2021/03/08 06:36:23;;;;;;;7.87;4.63;;;-0.20;88.00;;;;;;5030909;28;20536;-82
2021/03/08 06:38:51;;;;;;;8.13;3.90;;;-0.10;88.00;;;;;;5030240;28;20483;-80
2021/03/08 06:41:19;;;;;;;4.67;3.40;;;-0.10;87.10;;;;;;5010186;28;20345;-82
2021/03/08 06:43:48;;;;;;;5.43;3.77;;;0.00;87.30;;;;;;4986493;28;20220;-81
2021/03/08 06:46:17;;;;;;;8.57;4.27;;;0.10;87.20;;;;;;5025775;28;20269;-81
2021/03/08 06:48:45;;;;;;;9.20;4.40;;;0.20;87.00;;;;;;5024057;28;20260;-82
2021/03/08 06:51:16;;;;;;;8.17;4.33;;;0.20;86.80;;;;;;5025072;28;20296;-81
2021/03/08 06:53:45;;;;;;;8.07;4.30;;;0.20;86.60;;;;;;5021907;28;20189;-83
2021/03/08 06:56:15;;;;;;;10.13;5.03;;;0.30;86.60;;;;;;5010427;28;20265;-82
2021/03/08 06:58:43;;;;;;;7.37;4.70;;;0.30;86.60;;;;;;5013266;28;20195;-80
2021/03/08 07:01:31;;;;;;;6.43;4.37;;;0.30;86.80;;;;;;5014810;28;20305;-81
2021/03/08 07:04:17;;;;;;;8.37;4.50;;;0.40;86.90;;;;;;5027059;28;20190;-82
2021/03/08 07:06:58;;;;;;;8.20;4.17;;;0.40;86.40;;;;;;5028935;28;20187;-82
2021/03/08 07:09:27;;;;;;;8.03;4.40;;;0.50;86.70;;;;;;5028107;28;20213;-81
2021/03/08 07:12:08;;;;;;;7.70;4.30;;;0.50;86.30;;;;;;5021994;28;20213;-82
2021/03/08 07:14:37;;;;;;;6.07;4.33;;;0.60;86.60;;;;;;5026668;28;20186;-82
2021/03/08 07:17:31;;;;;;;8.10;3.67;;;0.80;85.80;;;;;;5021339;28;20195;-81
2021/03/08 07:20:01;;;;;;;8.33;4.10;;;0.70;85.40;;;;;;5016797;28;20230;-82
2021/03/08 07:22:40;;;;;;;5.13;3.17;;;0.80;84.60;;;;;;5020778;28;20268;-80
2021/03/08 07:25:21;;;;;;;5.63;3.37;;;0.80;84.20;;;;;;5021673;28;20190;-82
2021/03/08 07:27:52;;;;;;;7.93;3.97;;;0.90;84.10;;;;;;5018344;28;20616;-81
2021/03/08 07:30:22;;;;;;;6.30;3.97;;;0.90;84.40;;;;;;5012718;28;20208;-81
2021/03/08 07:32:59;;;;;;;7.60;3.53;;;0.80;84.00;;;;;;5014519;28;20195;-80
2021/03/08 07:35:42;;;;;;;6.30;3.60;;;1.00;83.50;;;;;;5003502;28;20206;-78
2021/03/08 07:38:11;;;;;;;3.83;3.33;;;1.00;82.90;;;;;;4987669;28;20256;-78
2021/03/08 07:40:41;;;;;;;6.73;3.70;;;1.00;82.90;;;;;;4976480;28;20374;-79
2021/03/08 07:43:22;;;;;;;5.80;3.47;;;1.00;83.10;;;;;;4988737;28;20483;-78
2021/03/08 07:45:51;;;;;;;5.33;3.20;;;1.10;83.00;;;;;;4985418;28;20210;-78
2021/03/08 07:48:20;;;;;;;6.90;3.20;;;1.10;82.70;;;;;;4991155;28;20259;-79
2021/03/08 07:50:50;;;;;;;4.50;2.83;;;1.20;82.60;;;;;;4983513;28;20551;-79
2021/03/08 07:53:29;;;;;;;5.90;3.37;;;1.30;82.60;;;;;;4985092;28;20231;-75
2021/03/08 07:56:01;;;;;;;6.77;4.33;;;1.40;82.70;;;;;;4988257;28;20309;-77
2021/03/08 07:58:30;;;;;;;6.67;4.00;;;1.50;83.00;;;;;;4993525;28;20195;-76
2021/03/08 08:00:59;;;;;;;4.77;3.73;;;1.70;83.00;;;;;;4977801;28;20452;-79
2021/03/08 08:03:29;;;;;;;5.23;3.93;;;1.70;83.10;;;;;;4991498;28;20898;-77
2021/03/08 08:06:00;;;;;;;4.57;2.97;;;1.80;82.90;;;;;;4983503;28;20623;-77
2021/03/08 08:08:29;;;;;;;6.40;3.83;;;1.90;82.30;;;;;;4987047;28;20197;-78
2021/03/08 08:10:58;;;;;;;5.73;3.43;;;1.80;82.30;;;;;;4982396;28;20211;-77
2021/03/08 08:13:35;;;;;;;4.90;2.97;;;1.80;82.40;;;;;;4988989;28;20200;-76
2021/03/08 08:16:07;;;;;;;5.87;3.73;;;1.80;82.30;;;;;;4987467;28;20313;-80
2021/03/08 08:18:39;;;;;;;3.93;3.27;;;1.80;82.10;;;;;;4989953;28;20199;-78
2021/03/08 08:21:10;;;;;;;6.03;3.53;;;1.70;82.00;;;;;;4978180;28;20547;-78
2021/03/08 08:23:42;;;;;;;6.53;4.23;;;1.80;82.20;;;;;;4993404;28;20658;-79
2021/03/08 08:26:12;;;;;;;9.20;3.87;;;1.80;82.50;;;;;;4990684;28;20202;-77
2021/03/08 08:28:43;;;;;;;6.17;3.70;;;1.70;82.50;;;;;;5002635;28;20196;-79
2021/03/08 08:31:10;;;;;;;6.57;3.70;;;1.60;82.80;;;;;;5000577;28;20289;-76
2021/03/08 08:33:39;;;;;;;7.70;3.90;;;1.60;82.80;;;;;;4996347;28;20743;-78
2021/03/08 08:36:19;;;;;;;4.97;3.27;;;1.70;82.90;;;;;;5002950;28;20604;-79
2021/03/08 08:39:15;;;;;;;2.63;2.10;;;1.80;82.60;;;;;;4991950;28;20343;-77
2021/03/08 08:41:43;;;;;;;6.03;3.20;;;1.90;81.80;;;;;;4984706;28;20327;-78
2021/03/08 08:44:38;;;;;;;3.70;2.73;;;2.00;81.70;;;;;;4988628;28;20849;-79
2021/03/08 08:47:31;;;;;;;3.57;2.83;;;2.30;81.40;;;;;;4989574;28;20199;-76
2021/03/08 08:50:04;;;;;;;5.47;3.50;;;2.30;81.00;;;;;;4975100;28;20276;-77
2021/03/08 08:52:52;;;;;;;4.57;3.30;;;2.30;81.40;;;;;;4986104;28;20204;-78
2021/03/08 08:55:21;;;;;;;5.80;2.87;;;2.50;81.40;;;;;;4975810;28;20196;-79
2021/03/08 08:58:20;;;;;;;5.60;2.73;;;2.60;81.10;;;;;;4981998;28;20758;-78
2021/03/08 09:04:11;;;;;;;3.20;2.57;;;2.20;80.10;;;;;;4982160;28;20671;-76
2021/03/08 09:07:02;;;;;;;3.87;2.53;;;2.20;80.20;;;;;;4989061;28;20820;-78
2021/03/08 09:09:53;;;;;;;5.63;2.70;;;2.40;80.30;;;;;;4983929;28;21420;-75
2021/03/08 09:12:39;;;;;;;4.17;1.87;;;2.60;80.00;;;;;;4986837;28;20746;-79
2021/03/08 09:15:09;;;;;;;4.57;2.30;;;2.90;78.90;;;;;;5000458;28;20373;-77
2021/03/08 09:17:43;;;;;;;5.73;3.13;;;3.10;78.70;;;;;;4981747;28;20587;-77
2021/03/08 09:20:25;;;;;;;3.83;2.60;;;3.20;78.50;;;;;;4977731;28;20926;-79
2021/03/08 09:22:55;;;;;;;2.57;1.87;;;3.00;78.20;;;;;;4982819;28;20481;-79
2021/03/08 09:25:24;;;;;;;6.10;2.20;;;3.00;78.20;;;;;;4990027;28;20681;-76
2021/03/08 09:28:03;;;;;;;3.53;2.17;;;2.90;77.60;;;;;;4985185;28;20200;-78
2021/03/08 09:30:33;;;;;;;4.80;1.97;;;2.90;77.60;;;;;;4977831;28;20468;-80
2021/03/08 09:33:05;;;;;;;4.37;2.20;;;2.90;77.60;;;;;;4984284;28;20203;-78
2021/03/08 09:35:35;;;;;;;4.63;1.50;;;2.90;77.40;;;;;;4985117;28;20786;-79
2021/03/08 09:38:07;;;;;;;1.40;1.30;;;2.80;77.00;;;;;;4986872;28;20196;-78
2021/03/08 09:40:36;;;;;;;4.47;1.93;;;2.80;77.40;;;;;;4970612;28;20235;-76
2021/03/08 09:43:20;;;;;;;4.23;1.80;;;2.60;77.30;;;;;;4985127;28;20191;-79
2021/03/08 09:45:56;;;;;;;2.87;2.00;;;2.50;77.60;;;;;;4979433;28;20199;-77
2021/03/08 09:48:24;;;;;;;5.60;3.07;;;2.60;77.60;;;;;;4983459;28;20201;-76
2021/03/08 09:50:52;;;;;;;5.80;2.40;;;2.60;78.10;;;;;;4970036;28;20794;-78
2021/03/08 09:53:23;;;;;;;3.37;2.17;;;2.60;78.20;;;;;;4977438;28;20650;-76
2021/03/08 09:55:50;;;;;;;3.50;2.37;;;2.60;77.60;;;;;;4987128;28;20204;-79
2021/03/08 09:58:19;;;;;;;5.40;2.63;;;2.60;77.50;;;;;;4988420;28;20199;-79
2021/03/08 10:00:48;;;;;;;6.33;2.83;;;2.70;77.80;;;;;;4969833;28;20353;-79
2021/03/08 10:03:16;;;;;;;4.13;2.43;;;2.70;77.60;;;;;;4982140;28;20207;-76
2021/03/08 10:05:46;;;;;;;4.63;2.60;;;2.70;77.80;;;;;;4979602;28;20250;-77
2021/03/08 10:08:15;;;;;;;4.67;3.27;;;2.80;77.80;;;;;;4985212;28;20200;-78
2021/03/08 10:10:46;;;;;;;4.83;2.90;;;2.80;77.70;;;;;;4983727;28;20402;-76
2021/03/08 10:13:15;;;;;;;5.80;3.10;;;2.80;77.90;;;;;;4987109;28;20203;-79
2021/03/08 10:15:47;;;;;;;5.07;2.90;;;2.90;77.50;;;;;;4985972;28;20204;-79
2021/03/08 10:18:17;;;;;;;8.77;3.30;;;2.90;77.80;;;;;;4986907;28;20210;-77
2021/03/08 10:20:50;;;;;;;5.23;3.10;;;3.00;77.50;;;;;;4982081;28;20460;-78
2021/03/08 10:23:20;;;;;;;5.80;2.80;;;3.10;77.60;;;;;;4985899;28;20570;-79
2021/03/08 10:25:48;;;;;;;4.60;3.00;;;3.00;77.50;;;;;;4985066;28;20192;-79
2021/03/08 10:28:16;;;;;;;6.80;2.93;;;2.90;77.60;;;;;;4992134;28;20580;-78
2021/03/08 10:30:49;;;;;;;5.87;3.30;;;3.30;78.10;;;;;;4984504;28;20690;-79
2021/03/08 10:33:19;;;;;;;3.10;2.47;;;3.20;76.90;;;;;;4983019;28;20210;-79
2021/03/08 10:35:53;;;;;;;4.67;2.93;;;3.10;76.80;;;;;;4989731;28;21085;-78
2021/03/08 10:38:29;;;;;;;3.63;2.67;;;3.20;76.40;;;;;;4992076;28;21980;-77
2021/03/08 10:40:58;;;;;;;4.60;2.70;;;3.20;75.70;;;;;;4989925;28;20235;-79
2021/03/08 10:43:28;;;;;;;5.50;3.00;;;3.30;76.50;;;;;;4995935;28;20200;-78
2021/03/08 10:45:58;;;;;;;4.77;2.40;;;3.50;76.50;;;;;;4983920;28;20482;-78
2021/03/08 10:48:27;;;;;;;4.47;3.20;;;3.50;76.30;;;;;;4985245;28;20232;-78
2021/03/08 10:50:56;;;;;;;4.70;3.37;;;3.30;76.00;;;;;;4987286;28;20210;-79
2021/03/08 10:53:56;;;;;;;6.77;2.93;;;3.30;75.60;;;;;;5000066;28;20755;-76
2021/03/08 10:56:25;;;;;;;5.17;2.60;;;3.20;75.80;;;;;;4994138;28;20238;-78
2021/03/08 10:58:53;;;;;;;3.80;2.43;;;3.20;76.30;;;;;;4988105;28;20200;-79
2021/03/08 11:01:22;;;;;;;3.03;2.37;;;3.10;74.90;;;;;;4975002;28;20496;-77
2021/03/08 11:03:49;;;;;;;2.70;1.93;;;3.20;76.10;;;;;;4985437;28;20238;-77
2021/03/08 11:06:19;;;;;;;6.90;2.20;;;3.10;75.40;;;;;;4990473;28;20235;-77
2021/03/08 11:08:58;;;;;;;3.80;1.97;;;3.00;75.80;;;;;;5009666;28;20436;-79
2021/03/08 11:11:32;;;;;;;4.73;2.03;;;2.90;76.10;;;;;;4982806;28;20304;-79
2021/03/08 11:14:01;;;;;;;3.37;2.50;;;2.70;76.70;;;;;;4997761;28;20255;-79
2021/03/08 11:16:31;;;;;;;6.20;2.10;;;2.80;77.50;;;;;;4987137;28;20261;-79
2021/03/08 11:19:17;;;;;;;2.97;2.20;;;2.90;77.20;;;;;;4984755;28;20211;-79
2021/03/08 11:21:47;;;;;;;4.43;1.60;;;3.10;77.20;;;;;;4983037;28;20307;-79
2021/03/08 11:24:17;;;;;;;3.57;1.67;;;3.10;75.60;;;;;;4977465;28;20204;-78
2021/03/08 11:27:08;;;;;;;5.93;2.07;;;2.90;75.70;;;;;;4984942;28;20713;-78
2021/03/08 11:29:36;;;;;;;2.70;1.70;;;2.80;77.30;;;;;;4979775;28;20211;-79
2021/03/08 11:32:05;;;;;;;2.77;2.00;;;2.70;77.80;;;;;;4980957;28;20253;-78
2021/03/08 11:34:40;;;;;;;4.10;2.17;;;2.60;78.30;;;;;;4982204;28;20201;-79
2021/03/08 11:37:10;;;;;;;2.87;2.17;;;2.60;78.20;;;;;;4987326;28;20210;-78
2021/03/08 11:39:41;;;;;;;7.97;3.57;;;2.70;78.50;;;;;;4979007;28;20579;-78
2021/03/08 11:42:11;;;;;;;7.00;2.57;;;2.70;77.90;;;;;;4985723;28;20238;-79
2021/03/08 11:44:39;;;;;;;5.47;2.33;;;2.70;77.30;;;;;;4985985;28;20201;-77
2021/03/08 11:47:07;;;;;;;4.37;2.40;;;2.70;77.30;;;;;;4991720;28;20872;-78
2021/03/08 11:49:35;;;;;;;5.40;2.13;;;2.70;77.30;;;;;;4976957;28;20208;-78
2021/03/08 11:52:04;;;;;;;4.93;2.30;;;2.80;77.20;;;;;;4981031;28;20225;-78
2021/03/08 11:54:32;;;;;;;3.40;2.13;;;2.70;76.80;;;;;;4978946;28;20317;-77
2021/03/08 11:57:01;;;;;;;4.67;2.60;;;2.60;76.80;;;;;;4987231;28;20230;-77
2021/03/08 11:59:29;;;;;;;5.67;2.73;;;2.60;77.20;;;;;;4977828;28;20210;-79
2021/03/08 12:01:57;;;;;;;6.10;2.90;;;2.70;77.30;;;;;;4978000;28;20537;-78
2021/03/08 12:04:25;;;;;;;2.83;2.33;;;2.70;77.10;;;;;;4978225;28;20940;-77
2021/03/08 12:06:53;;;;;;;6.50;2.50;;;2.70;76.90;;;;;;4982625;28;20277;-78
2021/03/08 12:09:21;;;;;;;8.37;2.53;;;2.80;76.70;;;;;;4983096;28;20543;-76
2021/03/08 12:11:49;;;;;;;3.70;2.23;;;2.80;76.70;;;;;;4976535;28;20218;-78
2021/03/08 12:14:17;;;;;;;4.67;2.70;;;2.90;76.70;;;;;;4985296;28;20205;-78
2021/03/08 12:16:45;;;;;;;6.20;2.57;;;3.00;77.10;;;;;;4981746;28;20539;-80
2021/03/08 12:19:12;;;;;;;6.87;3.00;;;3.10;76.80;;;;;;4984945;28;20386;-78
2021/03/08 12:21:40;;;;;;;5.23;2.33;;;3.30;76.70;;;;;;4978513;28;20309;-78
2021/03/08 12:24:08;;;;;;;4.63;2.40;;;3.40;76.30;;;;;;4981766;28;20572;-80
2021/03/08 12:26:36;;;;;;;4.00;2.73;;;3.30;76.00;;;;;;4980430;28;20236;-78
2021/03/08 12:29:03;;;;;;;5.00;2.63;;;3.30;76.40;;;;;;4983766;28;20204;-79
2021/03/08 12:31:31;;;;;;;3.40;2.23;;;3.20;76.20;;;;;;4976725;28;20203;-79
2021/03/08 12:34:00;;;;;;;4.00;2.13;;;3.20;75.40;;;;;;4980958;28;20611;-78
2021/03/08 12:36:27;;;;;;;3.50;2.17;;;3.10;75.20;;;;;;4980747;28;20503;-77
2021/03/08 12:38:55;;;;;;;1.77;1.57;;;2.90;75.60;;;;;;4980776;28;20365;-78
2021/03/08 12:41:25;;;;;;;3.50;1.83;;;3.00;76.40;;;;;;4975787;28;20223;-79
2021/03/08 12:43:53;;;;;;;3.10;2.00;;;2.70;77.10;;;;;;4986143;28;20249;-77
2021/03/08 12:46:21;;;;;;;2.93;2.37;;;2.70;78.30;;;;;;4996358;28;20206;-75
2021/03/08 12:48:49;;;;;;;4.80;2.30;;;2.50;79.60;;;;;;4992676;28;20647;-78
2021/03/08 12:51:20;;;;;;;3.43;2.53;;;2.40;81.10;;;;;;4983568;28;20643;-77
2021/03/08 12:53:47;;;;;;;3.63;2.70;;;2.10;82.60;;;;;;4980422;28;20202;-77
2021/03/08 12:56:15;;;;;;;2.50;1.83;;;2.00;83.70;;;;;;4993138;28;20295;-77
2021/03/08 12:58:42;;;;;;;5.50;2.37;;;1.80;84.60;;;;;;4982300;28;20209;-77
2021/03/08 13:01:11;;;;;;;3.50;1.70;;;1.80;85.90;;;;;;4975486;28;20623;-77
2021/03/08 13:03:41;;;;;;;3.03;2.10;;;1.80;85.00;;;;;;4978700;28;20218;-78
2021/03/08 13:06:10;;;;;;;4.60;1.83;;;1.90;85.20;;;;;;4990802;28;20790;-79
2021/03/08 13:08:42;;;;;;;3.80;1.60;;;2.10;83.90;;;;;;4984577;28;20647;-78
2021/03/08 13:11:10;;;;;;;4.43;2.07;;;2.30;82.80;;;;;;4982638;28;20520;-79
2021/03/08 13:13:37;;;;;;;4.07;1.80;;;2.50;82.00;;;;;;4992594;28;20601;-79
2021/03/08 13:16:05;;;;;;;2.97;1.97;;;2.50;81.40;;;;;;4984037;28;20231;-79
2021/03/08 13:18:33;;;;;;;2.90;1.80;;;2.60;81.20;;;;;;4985317;28;20287;-79